CYEG/YEG METAR and TAF weather

Enter ICAO airport designator
Station Type Date Time Source
CYEG METAR 2018/04/23 11:00 UTC NOAA

CYEG 231100Z 26008KT 15SM FEW250 00/M04 A3034 RMK CI1 CI TR SLP302


Station Type Date Time Source
CYEG Decoded METAR 2018/04/23 11:00 UTC NOAA

Edmonton International, Alta., Canada (CYEG) 53-18N 113-35W 723M
Apr 23, 2018 - 07:00 AM EDT / 2018.04.23 1100 UTC
Wind: from the W (260 degrees) at 9 MPH (8 KT):0
Visibility: 15 mile(s):0
Sky conditions: mostly clear
Temperature: 32 F (0 C)
Windchill: 24 F (-4 C):1
Dew Point: 24 F (-4 C)
Relative Humidity: 74%
Pressure (altimeter): 30.34 in. Hg (1027 hPa)
ob: CYEG 231100Z 26008KT 15SM FEW250 00/M04 A3034 RMK CI1 CI TR SLP302
cycle: 11

Station Type Date Time Source
CYEG TAF 2018/04/23 09:41 UTC NOAA

TAF CYEG 230838Z 2309/2406 26005KT P6SM FEW250
FM231800 28008KT P6SM FEW050
RMK NXT FCST BY 231200Z


Example: see airport list